Time;durP1;ratioP1;P1;durP2;ratioP2;P2;SDS_P1;SDS_P2;PMS_P1;PMS_P2;Temp;Humidity;BMP_temperature;BMP_pressure;BME280_temperature;BME280_humidity;BME280_pressure;Samples;Min_cycle;Max_cycle;Signal;HPM_P1;HPM_P2
2023/08/03 00:02:08;;;;;;;6.05;1.15;;;;;;;20.12;58.47;98662.38;4823492;29;20104;-71
2023/08/03 00:05:13;;;;;;;5.78;1.42;;;;;;;20.17;58.21;98676.72;4823819;29;20076;-72
2023/08/03 00:08:16;;;;;;;4.90;1.42;;;;;;;20.12;58.60;98659.72;4823625;29;20048;-71
2023/08/03 00:11:19;;;;;;;7.03;1.65;;;;;;;20.06;58.67;98634.75;4822685;29;20062;-72
2023/08/03 00:14:22;;;;;;;4.72;1.08;;;;;;;19.99;58.96;98660.38;4823630;29;20049;-71
2023/08/03 00:17:26;;;;;;;5.35;1.73;;;;;;;19.85;59.20;98650.63;4823101;29;20050;-71
2023/08/03 00:20:32;;;;;;;7.05;1.42;;;;;;;19.82;60.05;98645.69;4823583;29;20187;-71
2023/08/03 00:23:35;;;;;;;9.38;1.13;;;;;;;19.84;60.29;98651.63;4823524;29;20130;-71
2023/08/03 00:26:39;;;;;;;10.23;1.98;;;;;;;19.82;60.45;98656.31;4823294;29;20062;-70
2023/08/03 00:29:42;;;;;;;10.63;2.53;;;;;;;19.76;60.67;98646.44;4822455;29;20049;-71
2023/08/03 00:32:45;;;;;;;7.07;1.17;;;;;;;19.70;60.95;98656.75;4823317;29;20049;-70
2023/08/03 00:35:48;;;;;;;4.68;1.40;;;;;;;19.65;60.74;98660.97;4811971;29;20041;-70
2023/08/03 00:38:52;;;;;;;7.03;1.25;;;;;;;19.85;60.70;98663.91;4823123;29;20139;-71
2023/08/03 00:41:58;;;;;;;8.82;1.65;;;;;;;19.81;60.40;98666.06;4823125;29;20069;-71
2023/08/03 00:45:01;;;;;;;6.93;1.27;;;;;;;19.64;61.33;98664.63;4822249;29;20559;-71
2023/08/03 00:48:04;;;;;;;7.45;1.38;;;;;;;19.71;61.13;98660.22;4823381;29;20084;-71
2023/08/03 00:51:08;;;;;;;6.20;1.70;;;;;;;19.77;61.34;98650.72;4823335;29;20567;-71
2023/08/03 00:54:11;;;;;;;5.82;1.55;;;;;;;19.82;61.07;98651.81;4823124;29;20134;-71
2023/08/03 00:57:15;;;;;;;4.65;1.42;;;;;;;19.76;61.07;98659.69;4811616;29;20099;-70
2023/08/03 01:00:18;;;;;;;5.80;1.20;;;;;;;19.80;61.65;98661.78;4811584;29;20092;-72
2023/08/03 01:03:22;;;;;;;7.88;1.00;;;;;;;19.67;61.42;98659.78;4826134;29;20567;-71
2023/08/03 01:06:25;;;;;;;5.05;1.00;;;;;;;19.70;61.05;98672.66;4826278;29;20046;-71
2023/08/03 01:09:30;;;;;;;8.18;1.50;;;;;;;19.69;61.26;98664.91;4815236;29;20061;-71
2023/08/03 01:12:33;;;;;;;7.68;1.15;;;;;;;19.77;60.58;98663.97;4826195;29;20184;-71
2023/08/03 01:15:36;;;;;;;4.40;1.08;;;;;;;19.77;60.81;98669.28;4826098;29;20049;-72
2023/08/03 01:18:42;;;;;;;6.28;1.10;;;;;;;19.78;60.39;98670.91;4825449;29;20092;-71
2023/08/03 01:21:46;;;;;;;4.63;0.95;;;;;;;19.85;60.12;98679.81;4825219;29;20072;-71
2023/08/03 01:24:49;;;;;;;6.25;1.05;;;;;;;19.92;59.25;98675.41;4825932;29;20099;-71
2023/08/03 01:27:53;;;;;;;8.38;1.00;;;;;;;19.80;59.42;98692.78;4814639;29;20065;-71
2023/08/03 01:30:56;;;;;;;6.40;1.70;;;;;;;19.89;58.74;98681.06;4825342;29;20429;-71
2023/08/03 01:33:59;;;;;;;4.25;1.35;;;;;;;19.89;58.58;98681.88;4824971;29;20100;-71
2023/08/03 01:37:04;;;;;;;6.63;0.93;;;;;;;19.90;58.85;98693.31;4824965;29;20050;-71
2023/08/03 01:40:12;;;;;;;5.07;1.13;;;;;;;19.78;58.93;98679.69;4824903;29;20059;-71
2023/08/03 01:43:15;;;;;;;4.80;0.82;;;;;;;19.84;59.02;98692.22;4825659;29;20118;-71
2023/08/03 01:46:19;;;;;;;3.55;0.95;;;;;;;19.85;59.20;98685.13;4825466;29;20053;-71
2023/08/03 01:49:23;;;;;;;3.83;0.73;;;;;;;20.03;57.75;98692.66;4824752;29;20104;-71
2023/08/03 01:52:27;;;;;;;6.50;1.10;;;;;;;19.91;58.62;98684.34;4825413;29;20045;-71
2023/08/03 01:55:30;;;;;;;3.58;0.70;;;;;;;19.94;57.92;98684.81;4824768;29;20069;-71
2023/08/03 01:58:33;;;;;;;6.10;1.02;;;;;;;19.66;58.63;98702.41;4824600;29;20463;-71
2023/08/03 02:01:37;;;;;;;6.97;0.80;;;;;;;19.85;58.59;98706.34;4824476;29;20609;-71
2023/08/03 02:04:41;;;;;;;3.72;1.02;;;;;;;19.89;58.22;98694.34;4825339;29;20103;-71
2023/08/03 02:07:53;;;;;;;4.32;0.90;;;;;;;19.88;58.61;98695.34;4824500;29;20100;-71
2023/08/03 02:10:56;;;;;;;4.68;0.77;;;;;;;19.89;58.44;98692.50;4825167;29;20160;-71
2023/08/03 02:14:00;;;;;;;4.95;0.85;;;;;;;19.91;58.23;98684.34;4824752;29;20060;-71
2023/08/03 02:17:06;;;;;;;3.15;0.70;;;;;;;19.88;58.33;98695.34;4814004;29;20125;-71
2023/08/03 02:20:10;;;;;;;5.00;1.02;;;;;;;19.74;58.77;98703.09;4825374;29;20057;-71
2023/08/03 02:23:13;;;;;;;3.72;0.75;;;;;;;19.69;58.55;98697.56;4824613;29;20480;-71
2023/08/03 02:26:17;;;;;;;3.47;0.73;;;;;;;19.85;58.14;98701.03;4824892;29;20052;-71
2023/08/03 02:29:20;;;;;;;4.07;0.65;;;;;;;19.67;59.25;98710.16;4824918;29;20137;-71
2023/08/03 02:32:25;;;;;;;2.70;0.70;;;;;;;19.76;58.75;98702.13;4824369;29;20048;-71
2023/08/03 02:35:28;;;;;;;7.72;0.60;;;;;;;19.68;59.39;98711.78;4813856;29;20410;-71
2023/08/03 02:38:35;;;;;;;2.28;0.82;;;;;;;19.50;59.90;98711.31;4824012;29;20132;-71
2023/08/03 02:41:39;;;;;;;7.43;0.88;;;;;;;19.52;60.28;98702.16;4813346;29;20108;-71
2023/08/03 02:44:45;;;;;;;4.50;0.77;;;;;;;19.46;59.95;98717.97;4813427;29;20052;-71
2023/08/03 02:47:50;;;;;;;4.05;0.70;;;;;;;19.44;60.64;98715.50;4824637;29;20058;-71
2023/08/03 02:50:57;;;;;;;4.43;0.50;;;;;;;19.31;61.52;98733.06;4823859;29;20061;-71
2023/08/03 02:54:02;;;;;;;4.28;1.00;;;;;;;19.34;61.18;98719.44;4823657;29;20418;-71
2023/08/03 02:57:11;;;;;;;2.65;0.60;;;;;;;19.24;61.61;98728.47;4813275;29;20049;-71
2023/08/03 03:00:15;;;;;;;3.42;0.47;;;;;;;19.21;61.51;98731.47;4812867;29;20084;-71
2023/08/03 03:03:19;;;;;;;3.42;0.90;;;;;;;19.19;61.83;98722.88;4824464;29;20050;-71
2023/08/03 03:06:22;;;;;;;4.13;1.17;;;;;;;19.25;61.86;98730.09;4823554;29;20669;-71
2023/08/03 03:09:28;;;;;;;7.65;1.48;;;;;;;19.10;62.02;98729.22;4842129;29;20134;-71
2023/08/03 03:12:33;;;;;;;4.13;0.55;;;;;;;19.25;61.54;98732.75;4831245;29;20419;-71
2023/08/03 03:15:38;;;;;;;6.10;1.55;;;;;;;19.10;62.21;98734.53;4831191;29;20052;-71
2023/08/03 03:18:41;;;;;;;7.45;0.75;;;;;;;19.03;62.12;98737.06;4842484;29;20424;-71
2023/08/03 03:21:49;;;;;;;4.78;0.70;;;;;;;19.03;62.32;98720.38;4842414;29;20125;-71
2023/08/03 03:24:55;;;;;;;2.30;0.45;;;;;;;18.84;63.08;98744.69;4830877;29;20053;-71
2023/08/03 03:28:04;;;;;;;6.28;0.82;;;;;;;19.06;62.18;98738.53;4831187;29;20460;-71
2023/08/03 03:31:11;;;;;;;4.95;0.73;;;;;;;18.87;63.40;98752.28;4841448;29;20106;-71
2023/08/03 03:34:14;;;;;;;3.45;0.73;;;;;;;18.70;63.79;98757.66;4830939;29;20056;-70
2023/08/03 03:37:17;;;;;;;4.30;0.60;;;;;;;18.86;63.13;98763.84;4830962;29;20049;-70
2023/08/03 03:40:21;;;;;;;8.07;0.95;;;;;;;18.79;63.45;98738.09;4842021;29;20048;-71
2023/08/03 03:43:25;;;;;;;5.55;0.60;;;;;;;18.77;63.62;98744.56;4841261;29;20052;-71
2023/08/03 03:46:29;;;;;;;3.00;0.55;;;;;;;18.79;63.34;98756.63;4841306;29;20098;-71
2023/08/03 03:49:32;;;;;;;4.25;0.70;;;;;;;18.66;63.92;98761.63;4841959;29;20104;-71
2023/08/03 03:52:38;;;;;;;4.32;0.60;;;;;;;18.72;63.83;98753.03;4841168;29;20961;-71
2023/08/03 03:55:42;;;;;;;5.75;0.73;;;;;;;18.72;63.47;98750.38;4830343;29;20113;-71
2023/08/03 03:58:45;;;;;;;3.80;0.82;;;;;;;18.67;63.94;98738.66;4841553;29;20064;-71
2023/08/03 04:01:48;;;;;;;3.45;0.50;;;;;;;18.74;63.43;98735.16;4813737;29;20061;-71
2023/08/03 04:04:52;;;;;;;3.75;0.60;;;;;;;18.58;63.99;98730.75;4822303;29;20073;-71
2023/08/03 04:07:58;;;;;;;1.88;0.45;;;;;;;18.70;63.47;98754.19;4822567;29;20055;-71
2023/08/03 04:11:01;;;;;;;2.78;0.40;;;;;;;18.66;63.58;98732.50;4822241;29;20089;-71
2023/08/03 04:14:09;;;;;;;4.35;0.68;;;;;;;18.54;64.23;98750.63;4822384;29;20049;-71
2023/08/03 04:17:12;;;;;;;2.47;0.47;;;;;;;18.52;64.02;98751.81;4821391;29;20054;-71
2023/08/03 04:20:26;;;;;;;3.92;1.10;;;;;;;18.52;63.81;98749.97;4822696;29;20129;-72
2023/08/03 04:23:42;;;;;;;5.25;0.80;;;;;;;18.61;63.45;98766.63;4822972;29;20549;-70
2023/08/03 04:26:52;;;;;;;4.90;0.70;;;;;;;18.48;63.96;98764.56;4810514;29;20091;-70
2023/08/03 04:29:58;;;;;;;3.78;0.75;;;;;;;18.44;64.02;98757.97;4821047;29;20109;-70
2023/08/03 04:33:03;;;;;;;3.25;0.70;;;;;;;18.42;64.19;98777.66;4810766;29;20689;-70
2023/08/03 04:36:09;;;;;;;3.72;0.80;;;;;;;18.49;63.66;98784.72;4822430;29;20049;-71
2023/08/03 04:39:15;;;;;;;2.75;0.50;;;;;;;18.40;64.33;98788.41;4824956;29;20098;-71
2023/08/03 04:42:19;;;;;;;6.13;0.85;;;;;;;18.50;64.96;98793.47;4826278;29;20057;-71
2023/08/03 04:45:22;;;;;;;2.67;0.47;;;;;;;18.33;65.90;98801.50;4825886;29;20573;-71
2023/08/03 04:48:26;;;;;;;2.42;0.50;;;;;;;18.31;66.02;98811.44;4825690;29;20044;-71
2023/08/03 04:51:30;;;;;;;1.88;0.55;;;;;;;18.18;66.43;98803.22;4821711;29;20151;-71
2023/08/03 04:54:34;;;;;;;2.45;0.70;;;;;;;18.19;66.83;98810.16;4794350;29;20054;-70
2023/08/03 04:57:37;;;;;;;1.73;0.50;;;;;;;18.13;67.47;98810.84;4799033;29;20120;-71
2023/08/03 05:00:41;;;;;;;2.15;0.50;;;;;;;18.05;67.27;98808.22;4800145;29;20159;-72
2023/08/03 05:03:45;;;;;;;5.20;0.60;;;;;;;18.07;67.91;98816.81;4811817;29;20057;-72
2023/08/03 05:06:52;;;;;;;3.92;0.70;;;;;;;18.08;67.82;98834.31;4833063;29;20050;-71
2023/08/03 05:09:56;;;;;;;2.63;0.60;;;;;;;18.09;67.99;98828.03;4822396;29;20141;-71
2023/08/03 05:13:01;;;;;;;6.35;1.45;;;;;;;18.11;68.06;98828.69;4823425;29;20057;-72
2023/08/03 05:16:05;;;;;;;2.30;0.55;;;;;;;18.12;67.85;98830.34;4822456;29;20046;-71
2023/08/03 05:19:09;;;;;;;3.95;0.70;;;;;;;17.98;68.26;98831.88;4823564;29;20474;-72
2023/08/03 05:22:12;;;;;;;2.38;0.43;;;;;;;18.18;67.58;98848.19;4826702;29;20095;-78
2023/08/03 05:25:16;;;;;;;2.05;0.45;;;;;;;18.10;68.17;98833.16;4834547;29;20514;-79
2023/08/03 05:28:19;;;;;;;3.28;0.47;;;;;;;18.16;67.66;98858.13;4831056;29;20475;-76
2023/08/03 05:31:26;;;;;;;4.78;0.65;;;;;;;18.16;68.09;98847.53;4831802;29;20409;-77
2023/08/03 05:34:30;;;;;;;7.15;0.88;;;;;;;18.20;68.19;98854.13;4835056;29;20095;-78
2023/08/03 05:37:35;;;;;;;3.10;0.80;;;;;;;18.29;67.63;98857.59;4830516;29;20099;-76
2023/08/03 05:40:39;;;;;;;8.13;1.35;;;;;;;18.30;67.59;98848.66;4830181;29;20050;-70
2023/08/03 05:43:45;;;;;;;3.38;0.50;;;;;;;18.34;67.07;98849.94;4813469;29;20084;-71
2023/08/03 05:46:48;;;;;;;3.17;0.50;;;;;;;18.25;67.32;98848.31;4823290;29;20053;-71
2023/08/03 05:49:53;;;;;;;1.92;0.50;;;;;;;18.22;67.26;98865.38;4823364;29;20194;-70
2023/08/03 05:52:57;;;;;;;4.30;0.80;;;;;;;18.26;67.31;98863.22;4822859;29;20120;-71
2023/08/03 05:56:09;;;;;;;3.00;0.40;;;;;;;18.26;66.72;98881.75;4823510;29;20462;-71
2023/08/03 05:59:22;;;;;;;2.50;0.70;;;;;;;18.18;67.21;98892.31;4812205;29;20081;-71
2023/08/03 06:02:33;;;;;;;2.70;0.50;;;;;;;18.22;67.20;98896.28;4806417;29;20057;-71
2023/08/03 06:05:45;;;;;;;3.45;0.75;;;;;;;18.20;67.20;98893.00;4806453;29;20072;-70
2023/08/03 06:09:24;;;;;;;2.03;0.47;;;;;;;18.30;67.21;98907.69;4823991;29;20049;-70
2023/08/03 06:12:49;;;;;;;2.33;0.40;;;;;;;18.32;67.01;98911.00;4806645;29;20105;-71
2023/08/03 06:16:18;;;;;;;2.08;0.57;;;;;;;18.35;66.76;98923.88;4823663;29;20413;-72
2023/08/03 06:19:22;;;;;;;4.05;0.60;;;;;;;18.34;66.29;98922.22;4822416;29;20096;-73
2023/08/03 06:22:25;;;;;;;3.90;0.68;;;;;;;18.28;66.74;98936.16;4823941;29;20072;-75
2023/08/03 06:25:28;;;;;;;5.22;1.25;;;;;;;18.31;66.88;98941.09;4823580;29;20201;-72
2023/08/03 06:28:31;;;;;;;3.05;0.45;;;;;;;18.29;66.81;98926.38;4823928;29;20077;-72
2023/08/03 06:31:37;;;;;;;3.08;0.70;;;;;;;18.34;66.74;98956.59;4823708;29;20072;-71
2023/08/03 06:34:41;;;;;;;1.98;0.47;;;;;;;18.38;66.03;98954.47;4823933;29;20060;-72
2023/08/03 06:37:44;;;;;;;3.90;0.70;;;;;;;18.35;66.38;98950.34;4823707;29;20475;-72
2023/08/03 06:40:48;;;;;;;2.88;0.60;;;;;;;18.39;65.71;98963.25;4824715;29;20097;-72
2023/08/03 06:43:57;;;;;;;3.30;0.50;;;;;;;18.45;66.17;98979.28;4820820;29;20089;-71
2023/08/03 06:47:00;;;;;;;1.65;0.40;;;;;;;18.51;66.94;98985.72;4823393;29;20072;-71
2023/08/03 06:50:04;;;;;;;8.60;0.50;;;;;;;18.27;67.31;98968.88;4823810;29;20101;-74
2023/08/03 06:53:07;;;;;;;2.88;0.50;;;;;;;18.20;67.31;98986.41;4823778;29;20105;-75
2023/08/03 06:56:11;;;;;;;2.13;0.60;;;;;;;18.26;67.52;99000.78;4821852;29;20187;-75
2023/08/03 06:59:20;;;;;;;3.90;0.50;;;;;;;18.11;67.52;98997.97;4823113;29;20113;-73
2023/08/03 07:02:24;;;;;;;3.53;0.60;;;;;;;17.98;67.86;99000.31;4824152;29;20084;-74
2023/08/03 07:05:27;;;;;;;5.13;0.32;;;;;;;18.01;68.08;99002.63;4823917;29;20074;-72
2023/08/03 07:08:31;;;;;;;3.47;0.60;;;;;;;17.97;68.28;99003.94;4823686;29;20578;-75
2023/08/03 07:11:34;;;;;;;2.15;0.30;;;;;;;17.95;68.07;99008.56;4812117;29;20052;-74
2023/08/03 07:14:40;;;;;;;2.22;0.40;;;;;;;17.95;68.39;99008.56;4823203;29;20099;-74
2023/08/03 07:17:43;;;;;;;1.83;0.40;;;;;;;17.93;68.56;98994.66;4823151;29;20092;-74
2023/08/03 07:20:47;;;;;;;2.25;0.30;;;;;;;17.98;68.33;99003.75;4823125;29;20127;-76
2023/08/03 07:23:50;;;;;;;1.48;0.20;;;;;;;18.05;68.39;99003.94;4823263;29;20188;-75
2023/08/03 07:26:54;;;;;;;1.90;0.20;;;;;;;18.03;68.63;99019.16;4823166;29;20145;-75
2023/08/03 07:29:59;;;;;;;1.20;0.20;;;;;;;17.99;68.08;99015.16;4823252;29;20053;-75
2023/08/03 07:33:03;;;;;;;1.20;0.20;;;;;;;18.09;67.88;99036.97;4822087;29;20489;-76
2023/08/03 07:36:07;;;;;;;2.78;0.50;;;;;;;18.07;67.82;99049.56;4822798;29;20100;-75
2023/08/03 07:39:10;;;;;;;4.55;0.30;;;;;;;18.17;67.74;99028.25;4822101;29;20093;-76
2023/08/03 07:42:13;;;;;;;1.38;0.50;;;;;;;18.22;67.93;99017.97;4822202;29;20478;-76
2023/08/03 07:45:17;;;;;;;3.38;0.30;;;;;;;18.12;67.72;99032.22;4822072;29;20057;-76
2023/08/03 07:48:21;;;;;;;1.25;0.30;;;;;;;18.23;67.74;99031.06;4822136;29;20464;-76
2023/08/03 07:51:24;;;;;;;2.00;0.40;;;;;;;18.35;67.26;99037.66;4822173;29;20053;-75
2023/08/03 07:54:27;;;;;;;1.98;0.80;;;;;;;18.34;67.80;99022.75;4822230;29;20222;-76
2023/08/03 07:57:33;;;;;;;0.90;0.30;;;;;;;18.35;67.33;99042.97;4822376;29;20054;-73
2023/08/03 08:00:36;;;;;;;1.02;0.25;;;;;;;18.33;67.38;99044.94;4822781;29;20574;-73
2023/08/03 08:03:41;;;;;;;2.22;0.20;;;;;;;18.45;66.59;99031.38;4822650;29;20104;-75
2023/08/03 08:06:44;;;;;;;1.58;0.47;;;;;;;18.38;66.73;99040.94;4832129;29;20381;-76
2023/08/03 08:09:53;;;;;;;0.65;0.20;;;;;;;18.35;66.76;99040.31;4822005;29;20054;-74
2023/08/03 08:12:57;;;;;;;1.50;0.32;;;;;;;18.39;66.23;99059.31;4822629;29;20582;-74
2023/08/03 08:16:03;;;;;;;2.10;0.50;;;;;;;18.43;66.43;99057.16;4822537;29;20428;-74
2023/08/03 08:19:10;;;;;;;1.17;0.10;;;;;;;18.42;66.66;99052.88;4822533;29;20409;-75
2023/08/03 08:22:22;;;;;;;2.25;0.40;;;;;;;18.51;66.26;99058.00;4822587;29;20437;-75
2023/08/03 08:25:25;;;;;;;6.20;0.45;;;;;;;18.51;66.22;99059.81;4822315;29;20123;-74
2023/08/03 08:28:32;;;;;;;1.80;0.30;;;;;;;18.47;67.21;99082.31;4821681;29;20126;-74
2023/08/03 08:31:38;;;;;;;0.75;0.20;;;;;;;18.50;66.34;99077.50;4822427;29;20467;-74
2023/08/03 08:34:42;;;;;;;1.65;0.20;;;;;;;18.51;66.56;99070.41;4822292;29;20057;-74
2023/08/03 08:37:51;;;;;;;4.00;0.55;;;;;;;18.65;66.20;99080.31;4821300;29;20466;-73
2023/08/03 08:40:54;;;;;;;1.30;0.38;;;;;;;18.56;66.64;99086.59;4831706;29;20121;-73
2023/08/03 08:43:58;;;;;;;3.65;0.30;;;;;;;18.68;66.23;99087.09;4822166;29;20102;-74
2023/08/03 08:47:01;;;;;;;2.38;0.38;;;;;;;18.52;66.28;99101.16;4822114;29;20090;-74
2023/08/03 08:50:05;;;;;;;0.63;0.17;;;;;;;18.52;66.42;99128.47;4822084;29;20099;-74
2023/08/03 08:53:08;;;;;;;5.25;0.50;;;;;;;18.47;67.04;99084.94;4821659;29;20072;-74
2023/08/03 08:56:13;;;;;;;1.92;0.30;;;;;;;18.46;66.42;99085.94;4821980;29;20108;-74
2023/08/03 08:59:19;;;;;;;1.17;0.32;;;;;;;18.56;67.32;99099.84;4822241;29;20244;-74
2023/08/03 09:02:25;;;;;;;1.65;0.63;;;;;;;18.63;66.62;99092.88;4821243;29;20102;-74
2023/08/03 09:05:28;;;;;;;1.30;0.22;;;;;;;18.79;66.25;99106.16;4821965;29;20559;-74
2023/08/03 09:08:53;;;;;;;1.42;0.20;;;;;;;18.86;65.23;99105.47;4822296;29;20049;-74
2023/08/03 09:11:58;;;;;;;2.13;0.30;;;;;;;18.84;65.32;99120.72;4822125;29;20049;-74
2023/08/03 09:15:02;;;;;;;6.85;0.40;;;;;;;18.91;65.48;99113.75;4821712;29;20084;-76
2023/08/03 09:18:07;;;;;;;0.68;0.20;;;;;;;18.92;64.99;99113.59;4820920;29;20050;-77
2023/08/03 09:21:10;;;;;;;1.30;0.30;;;;;;;18.99;65.04;99124.34;4820992;29;20057;-75
2023/08/03 09:24:18;;;;;;;0.55;0.10;;;;;;;19.02;64.42;99124.00;4825020;29;20050;-75
2023/08/03 09:27:21;;;;;;;0.95;0.17;;;;;;;18.95;64.95;99112.41;4824697;29;20053;-76
2023/08/03 09:30:25;;;;;;;1.02;0.20;;;;;;;18.92;64.52;99116.25;4824960;29;20045;-78
2023/08/03 09:33:29;;;;;;;0.43;0.10;;;;;;;18.88;65.11;99140.56;4824771;29;20048;-76
2023/08/03 09:36:34;;;;;;;1.08;0.30;;;;;;;19.13;64.99;99142.19;4825022;29;20057;-76
2023/08/03 09:39:39;;;;;;;1.70;0.30;;;;;;;19.22;64.23;99151.75;4824418;29;20069;-77
2023/08/03 09:42:44;;;;;;;1.20;0.20;;;;;;;19.13;63.52;99167.84;4824965;29;20045;-77
2023/08/03 09:45:52;;;;;;;0.82;0.40;;;;;;;19.08;63.57;99155.13;4824979;29;20473;-74
2023/08/03 09:48:59;;;;;;;2.15;0.30;;;;;;;19.10;64.31;99150.47;4824955;29;20081;-75
2023/08/03 09:52:10;;;;;;;1.90;0.40;;;;;;;19.20;63.57;99153.75;4823737;29;20048;-78
2023/08/03 09:55:20;;;;;;;2.00;0.20;;;;;;;19.29;63.73;99142.13;4824480;29;20057;-76
2023/08/03 09:58:50;;;;;;;1.90;0.28;;;;;;;19.58;64.15;99161.94;4824578;29;20048;-73
2023/08/03 10:01:58;;;;;;;2.08;0.30;;;;;;;19.49;63.44;99171.72;4824454;29;20069;-74
2023/08/03 10:05:13;;;;;;;0.90;0.22;;;;;;;19.40;63.35;99170.13;4825217;29;20479;-71
2023/08/03 10:08:36;;;;;;;2.83;0.20;;;;;;;19.36;63.39;99178.56;4824779;29;20053;-70
2023/08/03 10:11:46;;;;;;;9.95;0.45;;;;;;;19.19;63.90;99199.78;4824900;29;20069;-70
2023/08/03 10:14:51;;;;;;;2.03;0.47;;;;;;;19.35;63.17;99187.53;4824851;29;20129;-70
2023/08/03 10:17:55;;;;;;;1.42;0.40;;;;;;;19.39;63.48;99180.88;4823984;29;20053;-70
2023/08/03 10:20:59;;;;;;;1.65;0.20;;;;;;;19.72;63.42;99179.81;4825000;29;20096;-70
2023/08/03 10:24:13;;;;;;;2.97;0.60;;;;;;;19.89;62.32;99164.66;4824636;29;20180;-70
2023/08/03 10:27:22;;;;;;;9.52;0.50;;;;;;;19.83;62.22;99183.09;4824424;29;20061;-73
2023/08/03 10:30:53;;;;;;;2.13;0.22;;;;;;;19.68;62.51;99178.50;4824155;29;20481;-73
2023/08/03 10:33:57;;;;;;;1.63;0.30;;;;;;;19.82;62.72;99173.47;4823041;29;20570;-66
2023/08/03 10:37:12;;;;;;;2.78;0.50;;;;;;;19.78;61.98;99203.97;4820759;29;20065;-66
2023/08/03 10:40:32;;;;;;;2.95;0.60;;;;;;;19.70;61.89;99203.03;4822615;29;20053;-68
2023/08/03 10:43:35;;;;;;;1.65;0.52;;;;;;;19.80;62.25;99181.59;4821664;29;20072;-66
2023/08/03 10:46:49;;;;;;;0.65;0.20;;;;;;;19.71;62.85;99202.00;4823457;29;20057;-69
2023/08/03 10:49:59;;;;;;;2.80;0.30;;;;;;;19.72;62.63;99211.66;4823969;29;20108;-67
2023/08/03 10:53:03;;;;;;;0.80;0.10;;;;;;;19.67;62.47;99213.16;4823559;29;20057;-68
2023/08/03 10:56:10;;;;;;;2.50;0.28;;;;;;;19.77;63.12;99208.47;4823975;29;20471;-67
2023/08/03 10:59:13;;;;;;;2.97;0.75;;;;;;;19.86;62.33;99219.88;4826157;29;20111;-68
2023/08/03 11:02:25;;;;;;;4.50;0.50;;;;;;;19.96;62.30;99209.88;4832501;29;20142;-69
2023/08/03 11:05:30;;;;;;;1.10;0.23;;;;;;;19.90;62.04;99224.66;4828781;29;20049;-66
2023/08/03 11:08:36;;;;;;;1.63;0.30;;;;;;;19.93;61.95;99219.00;4830368;29;20057;-66
2023/08/03 11:11:45;;;;;;;1.17;0.25;;;;;;;19.98;61.64;99218.50;4827559;29;20571;-66
2023/08/03 11:14:51;;;;;;;2.55;0.45;;;;;;;20.09;61.96;99214.63;4823434;29;20053;-67
2023/08/03 11:17:54;;;;;;;10.48;0.70;;;;;;;20.13;61.64;99218.59;4823259;29;20417;-67
2023/08/03 11:20:58;;;;;;;2.25;0.38;;;;;;;20.14;61.70;99221.09;4822479;29;20413;-69
2023/08/03 11:24:00;;;;;;;1.15;0.20;;;;;;;20.15;61.23;99222.72;4823035;29;20126;-68
2023/08/03 11:27:05;;;;;;;1.52;0.32;;;;;;;20.17;61.68;99246.44;4823520;29;20180;-78
2023/08/03 11:30:09;;;;;;;0.30;0.10;;;;;;;20.20;61.54;99224.88;4823694;29;20049;-77
2023/08/03 11:33:15;;;;;;;5.55;0.30;;;;;;;20.26;61.67;99229.50;4822793;29;20061;-78
2023/08/03 11:36:19;;;;;;;0.98;0.30;;;;;;;20.24;61.66;99241.28;4822855;29;20125;-79
2023/08/03 11:39:23;;;;;;;0.90;0.20;;;;;;;20.26;62.05;99244.56;4823497;29;20485;-78
2023/08/03 11:42:28;;;;;;;2.35;0.20;;;;;;;20.48;61.33;99256.22;4823533;29;20180;-78
2023/08/03 11:45:34;;;;;;;3.03;0.60;;;;;;;20.35;62.12;99259.44;4823370;29;20121;-78
2023/08/03 11:48:45;;;;;;;1.98;0.30;;;;;;;20.04;62.48;99270.88;4822595;29;20045;-79
2023/08/03 11:51:59;;;;;;;1.65;0.35;;;;;;;20.03;63.00;99261.25;4823249;29;20096;-79
2023/08/03 11:55:05;;;;;;;0.68;0.20;;;;;;;20.09;63.26;99255.25;4823605;29;20091;-80
2023/08/03 11:58:11;;;;;;;0.90;0.43;;;;;;;20.09;62.83;99271.19;4823607;29;20466;-78
2023/08/03 12:01:14;;;;;;;1.23;0.30;;;;;;;19.89;63.54;99277.91;4812921;29;20397;-79
2023/08/03 12:04:20;;;;;;;1.67;0.30;;;;;;;19.94;63.89;99279.03;4804963;29;20086;-75
2023/08/03 12:07:27;;;;;;;1.20;0.20;;;;;;;19.96;64.34;99286.81;4804908;29;20050;-75
2023/08/03 12:10:31;;;;;;;2.47;0.22;;;;;;;20.08;64.37;99282.81;4793534;29;20053;-74
2023/08/03 12:13:35;;;;;;;2.53;0.20;;;;;;;19.92;64.74;99285.50;4803982;29;20543;-79
2023/08/03 12:16:40;;;;;;;0.57;0.10;;;;;;;19.72;65.61;99295.69;4811226;29;20160;-78
2023/08/03 12:19:44;;;;;;;1.23;0.25;;;;;;;19.75;65.41;99303.31;4807256;29;20045;-78
2023/08/03 12:22:48;;;;;;;3.05;0.40;;;;;;;19.80;65.59;99293.00;4804208;29;20050;-79
2023/08/03 12:25:54;;;;;;;2.63;0.25;;;;;;;19.74;65.58;99291.03;4803968;29;20058;-81
2023/08/03 12:29:01;;;;;;;1.77;0.32;;;;;;;19.95;65.50;99295.78;4811765;29;20483;-77
2023/08/03 12:32:07;;;;;;;2.22;0.30;;;;;;;19.94;65.12;99302.06;4791588;29;20665;-79
2023/08/03 12:35:10;;;;;;;1.13;0.20;;;;;;;19.90;65.20;99306.06;4807487;29;20053;-76
2023/08/03 12:38:15;;;;;;;2.13;0.20;;;;;;;19.82;65.23;99333.44;4811122;29;20049;-79
2023/08/03 12:41:19;;;;;;;1.63;0.20;;;;;;;19.73;65.27;99308.75;4805778;29;20062;-83
2023/08/03 12:44:26;;;;;;;0.85;0.20;;;;;;;19.65;65.64;99321.19;4812991;29;20073;-80
2023/08/03 12:47:30;;;;;;;1.73;0.30;;;;;;;19.51;65.75;99317.38;4822825;29;20054;-77
2023/08/03 12:50:35;;;;;;;1.20;0.30;;;;;;;19.57;66.08;99314.06;4799522;29;20086;-77
2023/08/03 12:53:47;;;;;;;1.63;0.30;;;;;;;19.81;65.87;99315.03;4808331;29;20081;-78
2023/08/03 12:56:55;;;;;;;0.98;0.35;;;;;;;19.48;66.22;99317.72;4811243;29;20051;-78
2023/08/03 13:00:07;;;;;;;1.15;0.30;;;;;;;19.54;66.24;99334.78;4797087;29;20149;-80
2023/08/03 13:03:11;;;;;;;2.42;0.30;;;;;;;19.68;66.41;99321.69;4797024;29;20054;-79
2023/08/03 13:06:17;;;;;;;1.33;0.40;;;;;;;19.63;67.00;99331.13;4807418;29;20121;-79
2023/08/03 13:09:23;;;;;;;1.60;0.30;;;;;;;19.42;68.28;99350.19;4807498;29;20518;-79
2023/08/03 13:12:26;;;;;;;1.30;0.30;;;;;;;19.51;70.15;99350.00;4807552;29;20146;-79
2023/08/03 13:15:29;;;;;;;0.68;0.20;;;;;;;19.55;70.13;99358.47;4807986;29;20521;-79
2023/08/03 13:18:33;;;;;;;1.73;0.30;;;;;;;19.51;71.54;99349.19;4807712;29;20819;-78
2023/08/03 13:21:36;;;;;;;1.13;0.30;;;;;;;19.62;71.90;99359.47;4807252;29;20077;-77
2023/08/03 13:24:40;;;;;;;1.48;0.25;;;;;;;19.61;73.28;99362.28;4807595;29;20046;-78
2023/08/03 13:27:44;;;;;;;1.73;0.30;;;;;;;19.62;73.76;99355.97;4796409;29;20132;-79
2023/08/03 13:30:47;;;;;;;0.30;0.10;;;;;;;19.56;73.80;99365.44;4807722;29;20065;-79
2023/08/03 13:33:55;;;;;;;0.85;0.30;;;;;;;19.91;72.43;99348.38;4808070;29;20050;-79
2023/08/03 13:36:59;;;;;;;1.20;0.30;;;;;;;19.85;72.91;99369.44;4807581;29;20165;-78
2023/08/03 13:40:03;;;;;;;0.17;0.05;;;;;;;19.70;72.43;99356.00;4796372;29;20165;-81
2023/08/03 13:43:15;;;;;;;0.60;0.20;;;;;;;20.16;71.63;99366.84;4807537;29;20104;-79
2023/08/03 13:46:18;;;;;;;0.25;0.20;;;;;;;20.41;69.34;99375.56;4825019;29;20057;-76
2023/08/03 13:49:24;;;;;;;0.75;0.10;;;;;;;20.52;68.56;99382.38;4805963;29;20070;-77
2023/08/03 13:52:28;;;;;;;2.15;0.95;;;;;;;20.78;67.37;99393.56;4807219;29;20544;-78
2023/08/03 13:55:34;;;;;;;0.40;0.20;;;;;;;20.90;66.13;99401.97;4804007;29;20066;-81
2023/08/03 13:58:50;;;;;;;0.93;0.30;;;;;;;20.60;66.64;99385.81;4806202;29;20062;-79
2023/08/03 14:02:06;;;;;;;1.08;0.40;;;;;;;20.19;68.22;99398.38;4806746;29;20159;-81
2023/08/03 14:05:16;;;;;;;0.55;0.20;;;;;;;20.06;69.41;99392.75;4796214;29;20146;-81
2023/08/03 14:08:23;;;;;;;1.83;0.30;;;;;;;19.77;70.47;99410.03;4804661;29;20054;-82
2023/08/03 14:11:38;;;;;;;1.45;0.40;;;;;;;19.60;73.13;99419.78;4814008;29;20102;-80
2023/08/03 14:14:55;;;;;;;1.60;0.30;;;;;;;19.90;73.70;99433.41;4811407;29;20234;-78
2023/08/03 14:19:09;;;;;;;;;;;;;;;;;;;;;
2023/08/03 14:23:16;;;;;;;0.60;0.20;;;;;;;19.41;76.47;99446.63;4799015;29;20042;-82
2023/08/03 14:26:21;;;;;;;1.13;0.40;;;;;;;19.59;76.98;99460.56;4795540;29;20049;-80
2023/08/03 14:34:05;;;;;;;1.45;0.30;;;;;;;19.01;80.21;99456.94;4805708;29;20517;-81
2023/08/03 14:37:48;;;;;;;1.80;0.30;;;;;;;19.10;81.06;99449.84;4806372;29;20046;-80
2023/08/03 14:41:18;;;;;;;1.40;0.47;;;;;;;19.22;79.03;99442.44;4806129;29;20065;-80
2023/08/03 14:44:22;;;;;;;1.02;0.45;;;;;;;19.16;79.63;99449.19;4805861;29;20053;-81